Time;durP1;ratioP1;P1;durP2;ratioP2;P2;SDS_P1;SDS_P2;PMS_P1;PMS_P2;Temp;Humidity;BMP_temperature;BMP_pressure;BME280_temperature;BME280_humidity;BME280_pressure;Samples;Min_cycle;Max_cycle;Signal;HPM_P1;HPM_P2
2024/01/21 06:00:27;;;;;;;37.40;17.77;;;;;;;;;;6017164;23;20440;-76
2024/01/21 06:02:53;;;;;;;41.80;17.77;;;;;;;;;;4956763;29;20504;-75
2024/01/21 06:05:20;;;;;;;50.70;20.23;;;;;;;;;;4956663;29;20500;-75
2024/01/21 06:07:46;;;;;;;35.93;16.67;;;;;;;;;;4956577;28;20432;-76
2024/01/21 06:10:12;;;;;;;34.20;16.20;;;;;;;;;;4956552;28;20421;-76
2024/01/21 06:12:38;;;;;;;44.07;18.37;;;;;;;;;;4956520;29;20457;-75
2024/01/21 06:15:04;;;;;;;46.80;17.50;;;;;;;;;;4956766;29;20421;-76
2024/01/21 06:17:30;;;;;;;44.13;18.33;;;;;;;;;;4956294;29;20417;-75
2024/01/21 06:19:57;;;;;;;51.60;19.90;;;;;;;;;;4956440;29;20516;-75
2024/01/21 06:22:23;;;;;;;47.07;19.07;;;;;;;;;;4954981;28;20448;-75
2024/01/21 06:24:49;;;;;;;40.83;18.13;;;;;;;;;;4954532;28;20432;-75
2024/01/21 06:27:15;;;;;;;38.90;17.87;;;;;;;;;;4957109;29;21241;-75
2024/01/21 06:29:44;;;;;;;45.43;18.83;;;;;;;;;;4970740;29;20437;-75
2024/01/21 06:32:10;;;;;;;40.30;16.13;;;;;;;;;;4956841;28;20433;-75
2024/01/21 06:34:36;;;;;;;50.50;19.40;;;;;;;;;;4956259;29;20427;-75
2024/01/21 06:37:02;;;;;;;38.33;16.03;;;;;;;;;;4954706;29;20425;-75
2024/01/21 06:39:28;;;;;;;50.90;18.30;;;;;;;;;;4956107;29;20475;-75
2024/01/21 06:41:54;;;;;;;45.83;20.20;;;;;;;;;;4955777;28;20432;-75
2024/01/21 06:44:20;;;;;;;47.43;19.33;;;;;;;;;;4955210;29;20429;-75
2024/01/21 06:46:46;;;;;;;44.73;19.53;;;;;;;;;;4956612;29;20468;-75
2024/01/21 06:49:12;;;;;;;46.70;20.07;;;;;;;;;;4955035;29;20882;-76
2024/01/21 06:51:53;;;;;;;46.73;19.07;;;;;;;;;;4956181;28;20457;-76
2024/01/21 06:54:19;;;;;;;42.50;19.03;;;;;;;;;;4956519;28;20440;-75
2024/01/21 06:56:45;;;;;;;44.63;17.50;;;;;;;;;;4955053;29;20460;-75
2024/01/21 06:59:11;;;;;;;50.03;19.20;;;;;;;;;;4954996;29;20483;-75
2024/01/21 07:01:37;;;;;;;42.93;19.70;;;;;;;;;;4956147;28;20463;-75
2024/01/21 07:04:03;;;;;;;48.93;20.20;;;;;;;;;;4956072;29;20427;-75
2024/01/21 07:06:29;;;;;;;51.97;19.70;;;;;;;;;;4954311;29;20523;-75
2024/01/21 07:08:55;;;;;;;48.00;20.90;;;;;;;;;;4955862;29;20452;-75
2024/01/21 07:11:21;;;;;;;38.17;18.90;;;;;;;;;;4955657;28;20505;-75
2024/01/21 07:13:47;;;;;;;45.77;18.80;;;;;;;;;;4955844;29;20413;-75
2024/01/21 07:16:13;;;;;;;48.73;20.30;;;;;;;;;;4956800;29;20907;-75
2024/01/21 07:18:39;;;;;;;47.17;19.63;;;;;;;;;;4955803;29;20935;-76
2024/01/21 07:21:05;;;;;;;46.93;18.67;;;;;;;;;;4955610;28;20433;-75
2024/01/21 07:23:31;;;;;;;38.97;16.10;;;;;;;;;;4956270;29;20499;-76
2024/01/21 07:25:57;;;;;;;47.40;18.57;;;;;;;;;;4955667;29;20978;-76
2024/01/21 07:28:23;;;;;;;48.73;19.40;;;;;;;;;;4955887;29;20417;-75
2024/01/21 07:30:49;;;;;;;41.73;17.57;;;;;;;;;;4954339;28;20876;-75
2024/01/21 07:33:15;;;;;;;42.97;17.40;;;;;;;;;;4958171;29;20916;-75
2024/01/21 07:35:41;;;;;;;43.20;17.00;;;;;;;;;;4955794;28;20416;-75
2024/01/21 07:38:07;;;;;;;36.40;16.80;;;;;;;;;;4954435;29;20419;-76
2024/01/21 07:40:33;;;;;;;37.17;17.33;;;;;;;;;;4955059;28;20424;-75
2024/01/21 07:42:59;;;;;;;36.20;15.00;;;;;;;;;;4953933;29;20464;-75
2024/01/21 07:45:25;;;;;;;37.00;14.87;;;;;;;;;;4954774;29;20419;-76
2024/01/21 07:47:51;;;;;;;42.80;16.67;;;;;;;;;;4954731;29;20475;-75
2024/01/21 07:50:17;;;;;;;36.87;15.50;;;;;;;;;;4953481;28;20405;-75
2024/01/21 07:52:43;;;;;;;29.97;15.07;;;;;;;;;;4954712;29;20839;-76
2024/01/21 07:55:09;;;;;;;35.07;15.60;;;;;;;;;;4953207;29;20417;-75
2024/01/21 07:57:35;;;;;;;34.47;16.00;;;;;;;;;;4954347;29;20779;-76
2024/01/21 08:00:03;;;;;;;35.70;16.13;;;;;;;;;;4954799;29;20425;-75
2024/01/21 08:02:29;;;;;;;43.20;16.80;;;;;;;;;;4954965;28;20536;-75
2024/01/21 08:04:55;;;;;;;35.10;15.90;;;;;;;;;;4953684;29;20516;-76
2024/01/21 08:07:21;;;;;;;37.93;15.27;;;;;;;;;;4954936;29;20566;-76
2024/01/21 08:09:47;;;;;;;31.27;15.10;;;;;;;;;;4965916;29;20413;-75
2024/01/21 08:12:13;;;;;;;32.00;15.03;;;;;;;;;;4954850;28;20435;-75
2024/01/21 08:14:39;;;;;;;33.30;14.33;;;;;;;;;;4954643;29;20416;-76
2024/01/21 08:17:05;;;;;;;36.57;14.97;;;;;;;;;;4954123;29;20492;-75
2024/01/21 08:19:36;;;;;;;31.57;15.37;;;;;;;;;;4954782;29;20421;-76
2024/01/21 08:22:02;;;;;;;28.30;13.70;;;;;;;;;;4954042;28;20464;-75
2024/01/21 08:24:28;;;;;;;33.93;15.10;;;;;;;;;;4954166;29;20444;-75
2024/01/21 08:26:54;;;;;;;34.90;14.83;;;;;;;;;;4954067;29;20797;-76
2024/01/21 08:29:20;;;;;;;29.53;13.70;;;;;;;;;;4954441;29;20409;-75
2024/01/21 08:31:47;;;;;;;35.80;14.83;;;;;;;;;;4960680;28;20479;-75
2024/01/21 08:34:13;;;;;;;36.53;14.30;;;;;;;;;;4966449;29;20428;-75
2024/01/21 08:36:39;;;;;;;28.30;14.20;;;;;;;;;;4955409;29;20423;-75
2024/01/21 08:39:05;;;;;;;31.30;14.67;;;;;;;;;;4955846;29;20779;-75
2024/01/21 08:41:33;;;;;;;28.30;12.80;;;;;;;;;;4956049;28;20830;-76
2024/01/21 08:43:59;;;;;;;33.23;14.33;;;;;;;;;;4953909;29;20429;-75
2024/01/21 08:46:25;;;;;;;30.00;12.60;;;;;;;;;;4954092;29;20460;-75
2024/01/21 08:48:51;;;;;;;30.60;14.17;;;;;;;;;;4953951;28;20416;-75
2024/01/21 08:51:17;;;;;;;30.23;12.53;;;;;;;;;;4954801;28;20528;-75
2024/01/21 08:53:43;;;;;;;25.87;13.13;;;;;;;;;;4953824;29;20420;-75
2024/01/21 08:56:08;;;;;;;26.37;12.37;;;;;;;;;;4953652;29;20417;-76
2024/01/21 08:58:35;;;;;;;26.20;13.13;;;;;;;;;;4952648;29;20457;-75
2024/01/21 09:01:01;;;;;;;29.90;13.37;;;;;;;;;;4953733;28;20595;-75
2024/01/21 09:03:27;;;;;;;33.40;13.10;;;;;;;;;;4954004;28;20420;-75
2024/01/21 09:05:53;;;;;;;26.60;11.97;;;;;;;;;;4953408;29;20552;-76
2024/01/21 09:08:19;;;;;;;25.33;12.10;;;;;;;;;;4952406;29;20937;-75
2024/01/21 09:10:45;;;;;;;30.67;13.87;;;;;;;;;;4952393;28;20560;-75
2024/01/21 09:13:11;;;;;;;23.50;11.37;;;;;;;;;;4953904;29;20455;-75
2024/01/21 09:15:37;;;;;;;28.50;12.13;;;;;;;;;;4953950;29;20733;-76
2024/01/21 09:18:03;;;;;;;28.00;11.40;;;;;;;;;;4954018;29;20416;-76
2024/01/21 09:20:29;;;;;;;23.23;11.83;;;;;;;;;;4954360;28;20496;-76
2024/01/21 09:22:55;;;;;;;21.30;12.00;;;;;;;;;;4954594;29;20417;-76
2024/01/21 09:25:20;;;;;;;35.70;14.70;;;;;;;;;;4953755;29;20467;-75
2024/01/21 09:27:46;;;;;;;28.27;13.73;;;;;;;;;;4954737;29;20468;-76
2024/01/21 09:30:12;;;;;;;26.47;11.10;;;;;;;;;;4954800;28;20419;-76
2024/01/21 09:32:38;;;;;;;24.93;12.07;;;;;;;;;;4953793;29;20400;-76
2024/01/21 09:35:04;;;;;;;20.03;11.70;;;;;;;;;;4953658;29;20408;-76
2024/01/21 09:37:31;;;;;;;25.17;11.80;;;;;;;;;;4953475;29;20776;-75
2024/01/21 09:39:57;;;;;;;27.37;12.87;;;;;;;;;;4953737;28;20823;-76
2024/01/21 09:42:23;;;;;;;22.30;10.90;;;;;;;;;;4953407;28;20528;-76
2024/01/21 09:44:49;;;;;;;24.57;11.60;;;;;;;;;;4952452;29;20413;-75
2024/01/21 09:47:15;;;;;;;22.43;11.50;;;;;;;;;;4953469;29;20816;-76
2024/01/21 09:49:41;;;;;;;21.40;11.07;;;;;;;;;;4953894;29;20413;-76
2024/01/21 09:52:07;;;;;;;24.33;11.77;;;;;;;;;;4964758;28;20439;-76
2024/01/21 09:54:34;;;;;;;28.60;11.67;;;;;;;;;;4961983;29;20416;-75
2024/01/21 09:57:00;;;;;;;21.23;10.27;;;;;;;;;;4952152;29;20420;-75
2024/01/21 09:59:28;;;;;;;22.87;11.10;;;;;;;;;;4952626;28;20804;-76
2024/01/21 10:01:54;;;;;;;35.03;11.93;;;;;;;;;;4956870;28;20451;-76
2024/01/21 10:04:20;;;;;;;21.23;11.57;;;;;;;;;;4956886;29;20846;-76
2024/01/21 10:06:46;;;;;;;30.37;12.47;;;;;;;;;;4956728;28;20567;-76
2024/01/21 10:09:17;;;;;;;20.37;11.63;;;;;;;;;;4956684;29;20456;-76
2024/01/21 10:11:43;;;;;;;20.47;11.00;;;;;;;;;;4956841;28;20455;-76
2024/01/21 10:14:10;;;;;;;28.67;13.13;;;;;;;;;;4956634;29;20413;-76
2024/01/21 10:16:40;;;;;;;28.07;11.97;;;;;;;;;;4955328;29;20943;-76
2024/01/21 10:19:06;;;;;;;23.83;12.40;;;;;;;;;;4956748;29;20467;-76
2024/01/21 10:21:32;;;;;;;24.07;11.33;;;;;;;;;;4956348;28;20986;-76
2024/01/21 10:23:58;;;;;;;25.63;11.40;;;;;;;;;;4956519;29;20905;-77
2024/01/21 10:26:24;;;;;;;23.07;12.83;;;;;;;;;;4956188;29;21010;-76
2024/01/21 10:28:50;;;;;;;22.40;10.50;;;;;;;;;;4955154;29;20514;-76
2024/01/21 10:31:16;;;;;;;23.33;12.27;;;;;;;;;;4954980;28;20444;-76
2024/01/21 10:33:45;;;;;;;24.07;12.33;;;;;;;;;;4956094;29;20491;-77
2024/01/21 10:36:12;;;;;;;26.33;11.43;;;;;;;;;;4955963;28;20451;-77
2024/01/21 10:38:48;;;;;;;19.00;10.23;;;;;;;;;;4954957;29;20425;-76
2024/01/21 10:41:15;;;;;;;26.80;11.13;;;;;;;;;;4956277;28;20436;-77
2024/01/21 10:43:42;;;;;;;26.23;11.57;;;;;;;;;;4956191;29;20773;-77
2024/01/21 10:46:08;;;;;;;18.80;11.90;;;;;;;;;;4955993;29;20558;-77
2024/01/21 10:48:35;;;;;;;18.93;10.33;;;;;;;;;;4956543;29;20417;-78
2024/01/21 10:51:01;;;;;;;29.37;12.00;;;;;;;;;;4956246;28;20919;-77
2024/01/21 10:53:27;;;;;;;23.20;10.70;;;;;;;;;;4956113;29;20409;-76
2024/01/21 10:55:54;;;;;;;34.13;11.70;;;;;;;;;;4956046;29;20413;-78
2024/01/21 10:58:20;;;;;;;22.27;11.03;;;;;;;;;;4956122;29;20501;-77
2024/01/21 11:00:46;;;;;;;21.00;11.47;;;;;;;;;;4954870;28;20459;-77
2024/01/21 11:03:23;;;;;;;20.93;11.03;;;;;;;;;;4955040;29;20451;-78
2024/01/21 11:05:51;;;;;;;21.83;11.20;;;;;;;;;;4955886;28;20447;-78
2024/01/21 11:08:18;;;;;;;28.43;11.50;;;;;;;;;;4956047;29;20421;-77
2024/01/21 11:10:45;;;;;;;18.40;9.77;;;;;;;;;;4955886;28;20483;-78
2024/01/21 11:13:31;;;;;;;18.63;10.43;;;;;;;;;;4954591;29;20424;-78
2024/01/21 11:15:57;;;;;;;19.77;10.57;;;;;;;;;;4959173;29;20413;-78
2024/01/21 11:18:23;;;;;;;28.17;10.10;;;;;;;;;;4957010;29;20420;-78
2024/01/21 11:20:56;;;;;;;21.77;10.47;;;;;;;;;;4955042;28;20523;-78
2024/01/21 11:23:23;;;;;;;22.67;11.70;;;;;;;;;;4956236;28;20469;-77
2024/01/21 11:25:53;;;;;;;25.10;11.57;;;;;;;;;;4955983;29;20434;-79
2024/01/21 11:28:27;;;;;;;19.93;11.00;;;;;;;;;;4956118;29;20420;-78
2024/01/21 11:30:59;;;;;;;26.87;11.70;;;;;;;;;;4955557;28;20428;-74
2024/01/21 11:33:25;;;;;;;21.90;10.60;;;;;;;;;;4954517;29;20413;-75
2024/01/21 11:35:51;;;;;;;19.77;10.57;;;;;;;;;;4958962;29;20468;-74
2024/01/21 11:38:17;;;;;;;19.03;10.53;;;;;;;;;;4957337;29;20436;-74
2024/01/21 11:40:43;;;;;;;22.47;11.00;;;;;;;;;;4955197;28;20794;-74
2024/01/21 11:43:09;;;;;;;26.20;11.10;;;;;;;;;;4955262;29;20464;-74
2024/01/21 11:45:38;;;;;;;18.23;9.57;;;;;;;;;;4955090;29;20415;-74
2024/01/21 11:48:09;;;;;;;22.77;10.67;;;;;;;;;;4955182;28;20427;-74
2024/01/21 11:50:35;;;;;;;22.80;11.27;;;;;;;;;;4954729;28;20849;-74
2024/01/21 11:53:02;;;;;;;24.43;10.40;;;;;;;;;;4954886;29;20440;-73
2024/01/21 11:55:28;;;;;;;19.53;12.17;;;;;;;;;;4955073;29;20420;-74
2024/01/21 11:57:53;;;;;;;21.13;10.20;;;;;;;;;;4953544;29;20417;-75
2024/01/21 12:00:20;;;;;;;22.17;13.07;;;;;;;;;;4954703;28;20420;-74
2024/01/21 12:02:46;;;;;;;19.60;11.17;;;;;;;;;;4954695;28;20417;-74
2024/01/21 12:05:12;;;;;;;28.53;11.80;;;;;;;;;;4954413;29;20428;-74
2024/01/21 12:07:38;;;;;;;27.57;11.30;;;;;;;;;;4954411;29;20464;-74
2024/01/21 12:10:07;;;;;;;20.53;10.73;;;;;;;;;;4953258;29;20527;-74
2024/01/21 12:12:32;;;;;;;27.77;12.00;;;;;;;;;;4954482;28;21205;-73
2024/01/21 12:14:59;;;;;;;29.87;13.97;;;;;;;;;;4954626;29;20417;-75
2024/01/21 12:17:25;;;;;;;30.63;12.70;;;;;;;;;;4960292;29;20432;-78
2024/01/21 12:19:51;;;;;;;23.77;13.43;;;;;;;;;;4955451;29;20451;-77
2024/01/21 12:22:17;;;;;;;24.73;12.60;;;;;;;;;;4958646;28;20429;-76
2024/01/21 12:24:43;;;;;;;27.40;12.80;;;;;;;;;;4954666;29;20492;-75
2024/01/21 12:27:13;;;;;;;20.63;10.50;;;;;;;;;;4952833;29;20472;-74
2024/01/21 12:29:39;;;;;;;23.70;10.87;;;;;;;;;;4956400;28;20412;-79
2024/01/21 12:32:08;;;;;;;26.70;11.83;;;;;;;;;;4959074;28;20456;-80
2024/01/21 12:34:34;;;;;;;24.83;12.37;;;;;;;;;;4959460;29;20947;-80
2024/01/21 12:37:00;;;;;;;27.07;10.90;;;;;;;;;;4959545;29;20412;-80
2024/01/21 12:39:26;;;;;;;27.40;11.73;;;;;;;;;;4960606;29;20424;-79
2024/01/21 12:41:52;;;;;;;26.33;12.07;;;;;;;;;;4960914;28;20843;-80
2024/01/21 12:44:18;;;;;;;18.70;10.30;;;;;;;;;;4961315;29;20413;-80
2024/01/21 12:46:45;;;;;;;26.13;11.60;;;;;;;;;;4960391;29;20520;-80
2024/01/21 12:49:11;;;;;;;21.23;12.00;;;;;;;;;;4959588;29;20519;-80
2024/01/21 12:51:38;;;;;;;31.10;13.40;;;;;;;;;;4959748;28;20464;-80
2024/01/21 12:54:04;;;;;;;19.97;11.37;;;;;;;;;;4959046;29;20955;-80
2024/01/21 12:56:30;;;;;;;28.97;11.50;;;;;;;;;;4958855;29;20453;-79
2024/01/21 12:58:56;;;;;;;24.70;11.53;;;;;;;;;;4959999;29;20428;-79
2024/01/21 13:01:22;;;;;;;23.10;11.80;;;;;;;;;;4960583;28;21015;-80
2024/01/21 13:03:48;;;;;;;23.47;11.67;;;;;;;;;;4960977;29;20444;-80
2024/01/21 13:06:14;;;;;;;27.37;12.20;;;;;;;;;;4960033;29;20897;-80
2024/01/21 13:08:41;;;;;;;24.67;11.87;;;;;;;;;;4961253;29;20424;-80
2024/01/21 13:11:07;;;;;;;29.03;13.40;;;;;;;;;;4961421;28;20804;-80
2024/01/21 13:13:33;;;;;;;26.57;13.03;;;;;;;;;;4959842;29;20421;-79
2024/01/21 13:16:00;;;;;;;24.10;12.90;;;;;;;;;;4960224;29;20432;-80
2024/01/21 13:18:27;;;;;;;26.43;12.67;;;;;;;;;;4961806;28;20775;-79
2024/01/21 13:20:53;;;;;;;38.93;15.20;;;;;;;;;;4960146;28;20507;-80
2024/01/21 13:23:19;;;;;;;30.10;13.67;;;;;;;;;;4962398;29;21003;-79
2024/01/21 13:25:45;;;;;;;34.90;14.20;;;;;;;;;;4964985;29;20424;-79
2024/01/21 13:28:14;;;;;;;26.00;14.00;;;;;;;;;;4960776;29;20415;-79
2024/01/21 13:30:43;;;;;;;25.07;13.50;;;;;;;;;;4962430;28;20444;-80
2024/01/21 13:33:10;;;;;;;24.67;12.60;;;;;;;;;;4960045;29;20479;-80
2024/01/21 13:35:36;;;;;;;30.83;14.40;;;;;;;;;;4961866;28;20516;-80
2024/01/21 13:38:04;;;;;;;31.80;14.03;;;;;;;;;;4964710;29;20440;-79
2024/01/21 13:40:30;;;;;;;30.23;14.63;;;;;;;;;;4965410;28;20531;-79
2024/01/21 13:42:56;;;;;;;32.80;13.13;;;;;;;;;;4965026;29;20865;-80
2024/01/21 13:45:22;;;;;;;27.00;14.30;;;;;;;;;;4964219;29;20574;-80
2024/01/21 13:47:49;;;;;;;29.27;15.10;;;;;;;;;;4965154;29;20470;-79
2024/01/21 13:50:15;;;;;;;26.07;14.67;;;;;;;;;;4965601;28;20413;-79
2024/01/21 13:52:41;;;;;;;25.07;13.57;;;;;;;;;;4964477;29;20484;-79
2024/01/21 13:55:08;;;;;;;23.73;13.67;;;;;;;;;;4965123;29;20413;-79
2024/01/21 13:57:34;;;;;;;36.07;15.40;;;;;;;;;;4964233;29;20435;-80
2024/01/21 14:00:00;;;;;;;26.13;13.30;;;;;;;;;;4963110;29;20455;-81
2024/01/21 14:02:26;;;;;;;26.00;14.27;;;;;;;;;;4963977;28;20460;-80
2024/01/21 14:04:52;;;;;;;23.67;12.97;;;;;;;;;;4963819;29;20424;-79
2024/01/21 14:07:18;;;;;;;19.30;12.30;;;;;;;;;;4964379;29;20468;-80
2024/01/21 14:09:45;;;;;;;26.63;12.57;;;;;;;;;;4963814;29;20425;-80
2024/01/21 14:12:16;;;;;;;21.27;12.77;;;;;;;;;;4967038;28;20774;-79
2024/01/21 14:14:42;;;;;;;26.70;11.47;;;;;;;;;;4964856;28;20900;-78
2024/01/21 14:17:08;;;;;;;21.20;10.97;;;;;;;;;;4962924;29;20447;-80
2024/01/21 14:19:34;;;;;;;20.40;10.87;;;;;;;;;;4963423;28;20420;-78
2024/01/21 14:22:00;;;;;;;21.50;10.10;;;;;;;;;;4961007;28;20451;-78
2024/01/21 14:24:27;;;;;;;21.70;11.60;;;;;;;;;;4961465;29;20433;-79
2024/01/21 14:26:53;;;;;;;18.40;10.43;;;;;;;;;;4962297;29;20492;-79
2024/01/21 14:29:38;;;;;;;28.87;11.93;;;;;;;;;;4961334;29;20838;-79
2024/01/21 14:32:05;;;;;;;19.80;11.10;;;;;;;;;;4962544;28;20443;-79
2024/01/21 14:34:31;;;;;;;25.23;11.10;;;;;;;;;;4962196;29;20842;-79
2024/01/21 14:36:57;;;;;;;26.00;10.83;;;;;;;;;;4962424;29;20444;-79
2024/01/21 14:39:24;;;;;;;17.53;10.23;;;;;;;;;;4975809;28;20421;-80
2024/01/21 14:41:50;;;;;;;19.30;10.17;;;;;;;;;;4978428;28;20461;-79
2024/01/21 14:44:16;;;;;;;24.20;9.37;;;;;;;;;;4965555;29;20516;-78
2024/01/21 14:46:42;;;;;;;15.37;8.40;;;;;;;;;;4965399;28;20499;-79
2024/01/21 14:49:08;;;;;;;18.27;10.20;;;;;;;;;;4965333;29;20451;-78
2024/01/21 14:51:34;;;;;;;22.23;9.73;;;;;;;;;;4962960;28;20555;-80
2024/01/21 14:54:00;;;;;;;16.07;8.60;;;;;;;;;;4970984;28;20425;-79
2024/01/21 14:56:26;;;;;;;29.83;12.33;;;;;;;;;;4965378;29;20421;-79
2024/01/21 14:58:52;;;;;;;17.80;9.90;;;;;;;;;;4959517;29;20417;-79
2024/01/21 15:01:18;;;;;;;17.40;9.03;;;;;;;;;;4960436;28;20480;-78
2024/01/21 15:03:44;;;;;;;16.23;8.87;;;;;;;;;;4957039;29;20944;-78
2024/01/21 15:06:10;;;;;;;24.43;10.07;;;;;;;;;;4957475;29;20468;-78
2024/01/21 15:08:36;;;;;;;19.50;9.90;;;;;;;;;;4957242;29;20421;-79
2024/01/21 15:11:03;;;;;;;22.43;10.70;;;;;;;;;;4961080;28;20500;-79
2024/01/21 15:13:31;;;;;;;22.53;9.70;;;;;;;;;;4960179;29;20471;-78
2024/01/21 15:15:57;;;;;;;20.80;10.10;;;;;;;;;;4961088;29;20839;-78
2024/01/21 15:18:25;;;;;;;17.70;9.90;;;;;;;;;;4961603;29;20429;-79
2024/01/21 15:20:51;;;;;;;24.20;10.87;;;;;;;;;;4961576;28;20433;-79
2024/01/21 15:23:17;;;;;;;24.43;11.17;;;;;;;;;;4959936;29;20417;-78
2024/01/21 15:25:43;;;;;;;18.23;10.07;;;;;;;;;;4960394;29;20413;-79
2024/01/21 15:28:09;;;;;;;23.63;10.50;;;;;;;;;;4960611;29;20499;-79
2024/01/21 15:30:35;;;;;;;17.47;9.77;;;;;;;;;;4958703;28;20466;-79
2024/01/21 15:33:01;;;;;;;23.40;12.37;;;;;;;;;;4961011;29;20413;-79
2024/01/21 15:35:27;;;;;;;23.00;10.63;;;;;;;;;;4959072;29;20808;-79
2024/01/21 15:37:53;;;;;;;31.40;13.00;;;;;;;;;;4960054;29;20413;-79
2024/01/21 15:40:19;;;;;;;22.57;11.80;;;;;;;;;;4959991;28;20413;-78
2024/01/21 15:42:45;;;;;;;24.07;12.20;;;;;;;;;;4960002;29;20417;-79
2024/01/21 15:45:11;;;;;;;37.57;12.80;;;;;;;;;;4959186;29;20493;-79
2024/01/21 15:47:40;;;;;;;25.20;12.63;;;;;;;;;;4961616;29;20496;-79
2024/01/21 15:50:07;;;;;;;29.27;11.33;;;;;;;;;;4961775;29;20497;-78
2024/01/21 15:52:34;;;;;;;25.20;10.80;;;;;;;;;;4961576;28;20523;-79
2024/01/21 15:55:00;;;;;;;29.30;11.40;;;;;;;;;;4958050;28;20421;-78
2024/01/21 15:57:26;;;;;;;20.37;10.50;;;;;;;;;;4956350;28;20793;-78
2024/01/21 15:59:53;;;;;;;20.90;10.60;;;;;;;;;;4957905;29;20417;-79
2024/01/21 16:02:19;;;;;;;25.83;10.07;;;;;;;;;;4957344;28;20607;-79
2024/01/21 16:04:45;;;;;;;24.07;12.50;;;;;;;;;;4956874;29;20469;-76
2024/01/21 16:07:11;;;;;;;28.20;11.53;;;;;;;;;;4952812;29;20476;-75
2024/01/21 16:09:37;;;;;;;20.63;11.40;;;;;;;;;;4954492;28;20409;-75
2024/01/21 16:12:03;;;;;;;23.93;11.77;;;;;;;;;;4959370;28;20440;-79
2024/01/21 16:14:29;;;;;;;29.17;10.53;;;;;;;;;;4965467;29;20480;-79
2024/01/21 16:16:56;;;;;;;20.87;11.30;;;;;;;;;;4964463;29;20464;-79
2024/01/21 16:19:22;;;;;;;25.17;10.93;;;;;;;;;;4962282;29;20444;-79
2024/01/21 16:21:48;;;;;;;26.30;11.27;;;;;;;;;;4962250;28;20440;-80
2024/01/21 16:24:15;;;;;;;21.70;11.00;;;;;;;;;;4957521;29;20437;-80
2024/01/21 16:26:41;;;;;;;21.80;11.10;;;;;;;;;;4952918;29;20476;-79
2024/01/21 16:29:07;;;;;;;23.23;11.03;;;;;;;;;;4951931;29;20414;-79
2024/01/21 16:31:33;;;;;;;27.03;11.77;;;;;;;;;;4969883;28;20511;-79
2024/01/21 16:33:59;;;;;;;28.73;11.40;;;;;;;;;;4970983;28;20425;-78
2024/01/21 16:36:25;;;;;;;25.07;12.03;;;;;;;;;;4967379;29;20433;-78
2024/01/21 16:38:51;;;;;;;23.17;14.20;;;;;;;;;;4959712;29;20437;-79
2024/01/21 16:41:17;;;;;;;23.33;12.07;;;;;;;;;;4958234;29;20488;-78
2024/01/21 16:43:43;;;;;;;50.13;12.23;;;;;;;;;;4957650;29;20417;-79
2024/01/21 16:46:09;;;;;;;22.60;12.43;;;;;;;;;;4957080;29;20485;-79
2024/01/21 16:48:35;;;;;;;24.30;12.63;;;;;;;;;;4959214;29;20475;-75
2024/01/21 16:51:03;;;;;;;29.20;13.40;;;;;;;;;;4953806;28;20433;-73
2024/01/21 16:53:30;;;;;;;28.67;11.97;;;;;;;;;;4956649;29;20427;-78
2024/01/21 16:55:57;;;;;;;28.30;13.30;;;;;;;;;;4955441;28;20787;-80
2024/01/21 16:58:24;;;;;;;27.73;13.33;;;;;;;;;;4953156;29;20468;-80
2024/01/21 17:00:52;;;;;;;31.63;15.57;;;;;;;;;;4958434;28;20834;-80
2024/01/21 17:03:19;;;;;;;29.00;14.37;;;;;;;;;;4958753;28;20428;-80
2024/01/21 17:05:45;;;;;;;28.63;13.07;;;;;;;;;;4957891;29;20425;-80
2024/01/21 17:08:11;;;;;;;28.57;13.37;;;;;;;;;;4956101;28;20622;-80
2024/01/21 17:10:47;;;;;;;28.60;13.33;;;;;;;;;;4954891;29;20436;-80
2024/01/21 17:13:13;;;;;;;31.00;15.33;;;;;;;;;;4956642;28;20454;-80
2024/01/21 17:15:39;;;;;;;31.00;14.23;;;;;;;;;;4962856;28;20420;-80
2024/01/21 17:18:23;;;;;;;29.43;14.77;;;;;;;;;;4962430;28;20432;-80
2024/01/21 17:20:50;;;;;;;31.63;15.63;;;;;;;;;;4962382;28;20448;-80
2024/01/21 17:23:16;;;;;;;33.33;14.03;;;;;;;;;;4966826;28;20788;-80
2024/01/21 17:25:42;;;;;;;41.23;15.23;;;;;;;;;;4962492;29;20835;-80
2024/01/21 17:28:08;;;;;;;32.60;15.03;;;;;;;;;;4954375;29;20469;-79
2024/01/21 17:30:34;;;;;;;31.00;14.53;;;;;;;;;;4957759;28;20974;-80
2024/01/21 17:33:00;;;;;;;29.90;14.67;;;;;;;;;;4960586;29;20421;-80
2024/01/21 17:35:26;;;;;;;30.73;15.20;;;;;;;;;;4973398;28;20420;-80
2024/01/21 17:37:53;;;;;;;29.90;14.53;;;;;;;;;;4974744;28;20430;-80
2024/01/21 17:40:19;;;;;;;31.60;14.90;;;;;;;;;;4965986;28;20427;-79
2024/01/21 17:42:45;;;;;;;33.10;13.87;;;;;;;;;;4963837;28;20432;-80
2024/01/21 17:45:11;;;;;;;32.63;16.30;;;;;;;;;;4972074;29;20424;-79
2024/01/21 17:47:37;;;;;;;31.83;16.00;;;;;;;;;;4971912;28;20507;-80
2024/01/21 17:50:05;;;;;;;32.63;17.50;;;;;;;;;;4971292;28;20471;-79
2024/01/21 17:52:31;;;;;;;32.70;14.90;;;;;;;;;;4972656;29;20452;-80
2024/01/21 17:54:58;;;;;;;29.70;16.37;;;;;;;;;;4965151;29;20483;-79
2024/01/21 17:57:25;;;;;;;38.90;18.60;;;;;;;;;;4970068;29;20425;-79
2024/01/21 17:59:51;;;;;;;43.80;17.60;;;;;;;;;;4971761;28;20420;-79
2024/01/21 18:02:17;;;;;;;33.37;16.00;;;;;;;;;;4963698;28;20510;-80
2024/01/21 18:04:43;;;;;;;30.13;15.07;;;;;;;;;;4973624;28;20416;-80
2024/01/21 18:07:09;;;;;;;31.43;15.80;;;;;;;;;;4962576;29;20596;-80
2024/01/21 18:09:35;;;;;;;31.00;15.73;;;;;;;;;;4964703;29;20488;-80
2024/01/21 18:12:07;;;;;;;30.70;15.70;;;;;;;;;;4963954;28;20452;-80
2024/01/21 18:14:33;;;;;;;31.80;16.87;;;;;;;;;;4964278;28;20409;-80
2024/01/21 18:17:00;;;;;;;33.30;15.97;;;;;;;;;;4983286;23;20507;-76
2024/01/21 18:19:26;;;;;;;32.70;15.67;;;;;;;;;;4960701;28;20408;-78
2024/01/21 18:21:52;;;;;;;28.83;16.10;;;;;;;;;;4957726;28;20409;-78
2024/01/21 18:24:18;;;;;;;34.00;16.10;;;;;;;;;;4957729;29;20757;-77
2024/01/21 18:26:44;;;;;;;26.47;13.50;;;;;;;;;;4955083;28;20533;-76
2024/01/21 18:29:10;;;;;;;32.27;18.20;;;;;;;;;;4956829;29;20978;-76
2024/01/21 18:31:36;;;;;;;36.13;17.10;;;;;;;;;;4957168;29;20435;-77
2024/01/21 18:34:02;;;;;;;29.03;14.83;;;;;;;;;;4957485;29;20444;-77
2024/01/21 18:36:28;;;;;;;30.47;14.73;;;;;;;;;;4956482;28;20443;-77
2024/01/21 18:38:54;;;;;;;31.03;14.87;;;;;;;;;;4956717;29;21016;-76
2024/01/21 18:41:20;;;;;;;27.50;14.90;;;;;;;;;;4956718;29;20413;-76
2024/01/21 18:43:47;;;;;;;29.80;14.23;;;;;;;;;;4956448;29;20431;-76
2024/01/21 18:46:13;;;;;;;30.30;14.97;;;;;;;;;;4956074;28;20471;-76
2024/01/21 18:48:40;;;;;;;37.50;16.00;;;;;;;;;;4956415;29;20491;-76
2024/01/21 18:51:06;;;;;;;30.83;14.63;;;;;;;;;;4956717;28;20405;-77
2024/01/21 18:53:32;;;;;;;26.23;13.63;;;;;;;;;;4956510;29;20803;-77
2024/01/21 18:56:00;;;;;;;22.53;13.80;;;;;;;;;;4956149;28;20428;-77
2024/01/21 18:58:26;;;;;;;32.37;15.20;;;;;;;;;;4956807;28;20463;-77
2024/01/21 19:00:51;;;;;;;42.03;16.27;;;;;;;;;;4956512;29;20413;-77
2024/01/21 19:03:18;;;;;;;30.47;14.93;;;;;;;;;;4956252;29;20423;-77
2024/01/21 19:05:43;;;;;;;26.87;13.30;;;;;;;;;;4956325;28;20551;-77
2024/01/21 19:08:09;;;;;;;26.77;12.77;;;;;;;;;;4955852;29;20499;-77
2024/01/21 19:10:35;;;;;;;31.33;14.43;;;;;;;;;;4955950;29;20569;-77
2024/01/21 19:13:02;;;;;;;33.53;14.33;;;;;;;;;;4955791;29;20417;-77
2024/01/21 19:15:29;;;;;;;23.57;13.43;;;;;;;;;;4955653;28;21010;-77
2024/01/21 19:17:55;;;;;;;31.00;15.23;;;;;;;;;;4954503;29;20986;-76
2024/01/21 19:20:22;;;;;;;35.53;14.10;;;;;;;;;;4955962;29;20421;-76
2024/01/21 19:22:48;;;;;;;26.97;13.30;;;;;;;;;;4955536;28;20934;-76
2024/01/21 19:25:15;;;;;;;29.90;13.10;;;;;;;;;;4955636;29;20412;-77
2024/01/21 19:27:41;;;;;;;26.20;11.60;;;;;;;;;;4955829;29;20487;-77
2024/01/21 19:30:07;;;;;;;21.60;11.60;;;;;;;;;;4954359;29;20933;-76
2024/01/21 19:32:33;;;;;;;19.47;10.47;;;;;;;;;;4954426;28;20927;-76
2024/01/21 19:35:00;;;;;;;20.27;10.60;;;;;;;;;;4955450;29;20412;-76
2024/01/21 19:37:27;;;;;;;20.80;10.30;;;;;;;;;;4955090;28;20455;-77
2024/01/21 19:39:53;;;;;;;19.77;9.97;;;;;;;;;;4956001;28;20417;-77
2024/01/21 19:42:19;;;;;;;23.57;11.53;;;;;;;;;;4955554;29;20475;-77
2024/01/21 19:44:45;;;;;;;21.63;11.53;;;;;;;;;;4955676;29;20417;-77
2024/01/21 19:47:11;;;;;;;18.33;11.57;;;;;;;;;;4954037;28;20562;-77
2024/01/21 19:49:37;;;;;;;21.43;10.20;;;;;;;;;;4956377;29;20420;-78
2024/01/21 19:52:04;;;;;;;19.60;10.87;;;;;;;;;;4956029;28;20409;-77
2024/01/21 19:54:34;;;;;;;18.47;11.20;;;;;;;;;;4954946;29;20449;-77
2024/01/21 19:57:00;;;;;;;23.43;11.70;;;;;;;;;;4956079;28;20436;-77
2024/01/21 19:59:26;;;;;;;23.00;10.50;;;;;;;;;;4968316;29;20472;-76
2024/01/21 20:01:52;;;;;;;20.13;10.90;;;;;;;;;;4967701;29;20425;-77
2024/01/21 20:04:18;;;;;;;23.37;12.03;;;;;;;;;;4973524;29;20432;-77
2024/01/21 20:06:44;;;;;;;29.97;11.00;;;;;;;;;;4973753;28;20465;-77
2024/01/21 20:09:10;;;;;;;26.20;11.03;;;;;;;;;;4975406;29;20892;-77
2024/01/21 20:11:38;;;;;;;21.20;10.30;;;;;;;;;;4968867;29;20425;-77
2024/01/21 20:14:05;;;;;;;21.00;10.60;;;;;;;;;;4955587;28;20492;-78